Hlavní strana
METAR-TAF:

METAR-TAF

Letiště :

Hohenfels, Německo

zeměpisná šířka: 49-13N, zeměpisná délka: 011-50E, výška: 442 m

Aktuální stav počasí

Zpráva byla vytvořena před 38 minutami, v 04:07 UTC
Bezvětří
Teplota -4°C
Vlhkost vzduchu 100%
Tlak 1025 hPa
Viditelnost: 9000 m
Polojasno ve výšce 1900 ft
kouřmo

METAR: ETIH 180407Z AUTO 00000KT 9000 BR SCT019 M04/M04 A3026 RMK AO2 SLP278 $

Čas: 05:45 (04:45 UTC)


TAF: chybějící

Stav a předpovědi počasí z více než 4 000 letišť (zprávy METAR a TAF).

Červené a žluté tečky na mapě představují dostupné meteorologické stanice.

Když kurzor umístíte na tečku, zobrazí se název stanice.

Pak kliknutím zobrazíte stav a předpověď počasí.

Chcete-li změnit mapu, kliknutím na zelené tlačítko se znaménkem +mapu přiblížíte, kliknutím na zelené tlačítko se znaménkem – mapu oddálíte a kliknutím na zelené šipky přejdete na sousední mapy.


METAR-TAF: